sensor_id;sensor_type;location;lat;lon;timestamp;pressure;altitude;pressure_sealevel;temperature;humidity
56518;BME280;42419;48.760;2.322;2023-05-12T00:00:17;100939.69;;;20.70;45.82
56518;BME280;42419;48.760;2.322;2023-05-12T00:02:43;100924.09;;;20.58;45.73
56518;BME280;42419;48.760;2.322;2023-05-12T00:05:08;100929.91;;;20.69;45.84
56518;BME280;42419;48.760;2.322;2023-05-12T00:07:34;100935.28;;;20.69;45.76
56518;BME280;42419;48.760;2.322;2023-05-12T00:10:00;100945.09;;;20.69;45.80
56518;BME280;42419;48.760;2.322;2023-05-12T00:12:25;100929.22;;;20.64;45.94
56518;BME280;42419;48.760;2.322;2023-05-12T00:14:51;100943.34;;;20.68;45.74
56518;BME280;42419;48.760;2.322;2023-05-12T00:17:16;100938.00;;;20.68;45.84
56518;BME280;42419;48.760;2.322;2023-05-12T00:19:41;100935.31;;;20.68;45.92
56518;BME280;42419;48.760;2.322;2023-05-12T00:22:08;100925.84;;;20.59;45.81
56518;BME280;42419;48.760;2.322;2023-05-12T00:24:34;100939.78;;;20.67;45.73
56518;BME280;42419;48.760;2.322;2023-05-12T00:27:00;100929.97;;;20.68;45.65
56518;BME280;42419;48.760;2.322;2023-05-12T00:29:25;100931.75;;;20.67;45.74
56518;BME280;42419;48.760;2.322;2023-05-12T00:31:50;100930.88;;;20.67;45.78
56518;BME280;42419;48.760;2.322;2023-05-12T00:34:16;100929.16;;;20.66;45.61
56518;BME280;42419;48.760;2.322;2023-05-12T00:36:41;100909.34;;;20.48;45.69
56518;BME280;42419;48.760;2.322;2023-05-12T00:39:06;100931.06;;;20.62;45.80
56518;BME280;42419;48.760;2.322;2023-05-12T00:41:32;100937.19;;;20.66;45.58
56518;BME280;42419;48.760;2.322;2023-05-12T00:43:57;100936.38;;;20.63;45.61
56518;BME280;42419;48.760;2.322;2023-05-12T00:46:22;100939.91;;;20.64;45.66
56518;BME280;42419;48.760;2.322;2023-05-12T00:48:48;100938.13;;;20.64;45.54
56518;BME280;42419;48.760;2.322;2023-05-12T00:51:15;100926.66;;;20.61;45.64
56518;BME280;42419;48.760;2.322;2023-05-12T00:53:41;100930.97;;;20.65;45.64
56518;BME280;42419;48.760;2.322;2023-05-12T00:56:06;100927.41;;;20.64;45.50
56518;BME280;42419;48.760;2.322;2023-05-12T00:58:32;100934.56;;;20.64;45.58
56518;BME280;42419;48.760;2.322;2023-05-12T01:00:57;100927.41;;;20.64;45.52
56518;BME280;42419;48.760;2.322;2023-05-12T01:03:22;100927.41;;;20.64;45.56
56518;BME280;42419;48.760;2.322;2023-05-12T01:05:51;100922.13;;;20.63;45.45
56518;BME280;42419;48.760;2.322;2023-05-12T01:08:19;100931.03;;;20.63;45.40
56518;BME280;42419;48.760;2.322;2023-05-12T01:10:45;100915.16;;;20.59;45.39
56518;BME280;42419;48.760;2.322;2023-05-12T01:13:10;100922.13;;;20.63;45.50
56518;BME280;42419;48.760;2.322;2023-05-12T01:15:36;100923.88;;;20.64;45.41
56518;BME280;42419;48.760;2.322;2023-05-12T01:18:04;100923.91;;;20.62;45.41
56518;BME280;42419;48.760;2.322;2023-05-12T01:20:30;100921.25;;;20.62;45.35
56518;BME280;42419;48.760;2.322;2023-05-12T01:22:57;100899.41;;;20.51;45.11
56518;BME280;42419;48.760;2.322;2023-05-12T01:25:24;100921.25;;;20.62;45.37
56518;BME280;42419;48.760;2.322;2023-05-12T01:27:51;100923.03;;;20.62;45.31
56518;BME280;42419;48.760;2.322;2023-05-12T01:30:18;100912.66;;;20.54;45.27
56518;BME280;42419;48.760;2.322;2023-05-12T01:32:44;100922.25;;;20.60;45.16
56518;BME280;42419;48.760;2.322;2023-05-12T01:35:09;100923.03;;;20.62;45.22
56518;BME280;42419;48.760;2.322;2023-05-12T01:37:35;100911.53;;;20.60;45.21
56518;BME280;42419;48.760;2.322;2023-05-12T01:40:01;100918.66;;;20.61;45.27
56518;BME280;42419;48.760;2.322;2023-05-12T01:42:26;100919.50;;;20.61;45.15
56518;BME280;42419;48.760;2.322;2023-05-12T01:44:52;100893.41;;;20.45;45.22
56518;BME280;42419;48.760;2.322;2023-05-12T01:47:17;100919.56;;;20.60;45.35
56518;BME280;42419;48.760;2.322;2023-05-12T01:49:42;100909.34;;;20.48;45.27
56518;BME280;42419;48.760;2.322;2023-05-12T01:52:08;100917.78;;;20.60;45.10
56518;BME280;42419;48.760;2.322;2023-05-12T01:54:33;100908.88;;;20.60;45.21
56518;BME280;42419;48.760;2.322;2023-05-12T01:56:58;100912.41;;;20.60;45.26
56518;BME280;42419;48.760;2.322;2023-05-12T01:59:24;100914.22;;;20.60;45.16
56518;BME280;42419;48.760;2.322;2023-05-12T02:01:50;100905.38;;;20.58;45.14
56518;BME280;42419;48.760;2.322;2023-05-12T02:04:15;100901.06;;;20.54;44.77
56518;BME280;42419;48.760;2.322;2023-05-12T02:06:40;100912.47;;;20.59;45.00
56518;BME280;42419;48.760;2.322;2023-05-12T02:09:06;100917.81;;;20.59;45.04
56518;BME280;42419;48.760;2.322;2023-05-12T02:11:31;100923.16;;;20.59;45.07
56518;BME280;42419;48.760;2.322;2023-05-12T02:13:56;100913.41;;;20.58;45.02
56518;BME280;42419;48.760;2.322;2023-05-12T02:16:22;100913.47;;;20.56;44.99
56518;BME280;42419;48.760;2.322;2023-05-12T02:18:48;100913.47;;;20.56;44.96
56518;BME280;42419;48.760;2.322;2023-05-12T02:21:13;100914.31;;;20.57;44.85
56518;BME280;42419;48.760;2.322;2023-05-12T02:23:38;100915.19;;;20.57;44.85
56518;BME280;42419;48.760;2.322;2023-05-12T02:26:04;100916.16;;;20.56;44.97
56518;BME280;42419;48.760;2.322;2023-05-12T02:28:29;100908.13;;;20.56;44.99
56518;BME280;42419;48.760;2.322;2023-05-12T02:30:54;100913.47;;;20.56;44.90
56518;BME280;42419;48.760;2.322;2023-05-12T02:33:20;100910.81;;;20.56;44.88
56518;BME280;42419;48.760;2.322;2023-05-12T02:35:47;100904.78;;;20.50;45.29
56518;BME280;42419;48.760;2.322;2023-05-12T02:38:12;100890.72;;;20.45;45.09
56518;BME280;42419;48.760;2.322;2023-05-12T02:40:38;100912.59;;;20.56;44.88
56518;BME280;42419;48.760;2.322;2023-05-12T02:43:04;100822.66;;;20.07;44.76
56518;BME280;42419;48.760;2.322;2023-05-12T02:45:30;100884.66;;;20.40;44.95
56518;BME280;42419;48.760;2.322;2023-05-12T02:47:55;100888.88;;;20.47;44.94
56518;BME280;42419;48.760;2.322;2023-05-12T02:50:20;100907.28;;;20.54;44.77
56518;BME280;42419;48.760;2.322;2023-05-12T02:52:46;100912.66;;;20.54;44.76
56518;BME280;42419;48.760;2.322;2023-05-12T02:55:12;100918.88;;;20.55;44.83
56518;BME280;42419;48.760;2.322;2023-05-12T02:57:37;100919.78;;;20.54;44.81
56518;BME280;42419;48.760;2.322;2023-05-12T03:00:04;100909.44;;;20.45;44.86
56518;BME280;42419;48.760;2.322;2023-05-12T03:02:33;100909.97;;;20.54;44.71
56518;BME280;42419;48.760;2.322;2023-05-12T03:04:59;100913.66;;;20.52;44.83
56518;BME280;42419;48.760;2.322;2023-05-12T03:07:24;100901.53;;;20.42;44.63
56518;BME280;42419;48.760;2.322;2023-05-12T03:09:49;100896.16;;;20.42;44.68
56518;BME280;42419;48.760;2.322;2023-05-12T03:12:15;100909.97;;;20.54;44.67
56518;BME280;42419;48.760;2.322;2023-05-12T03:14:40;100915.38;;;20.53;44.56
56518;BME280;42419;48.760;2.322;2023-05-12T03:17:06;100907.59;;;20.47;44.54
56518;BME280;42419;48.760;2.322;2023-05-12T03:19:31;100922.47;;;20.54;44.47
56518;BME280;42419;48.760;2.322;2023-05-12T03:21:56;100918.03;;;20.53;44.60
56518;BME280;42419;48.760;2.322;2023-05-12T03:24:22;100913.66;;;20.52;44.55
56518;BME280;42419;48.760;2.322;2023-05-12T03:26:47;100905.03;;;20.44;44.64
56518;BME280;42419;48.760;2.322;2023-05-12T03:29:13;100921.69;;;20.52;44.57
56518;BME280;42419;48.760;2.322;2023-05-12T03:31:38;100919.94;;;20.51;44.44
56518;BME280;42419;48.760;2.322;2023-05-12T03:34:04;100887.50;;;20.35;44.35
56518;BME280;42419;48.760;2.322;2023-05-12T03:36:29;100921.72;;;20.50;44.32
56518;BME280;42419;48.760;2.322;2023-05-12T03:38:55;100919.00;;;20.52;44.30
56518;BME280;42419;48.760;2.322;2023-05-12T03:41:20;100919.97;;;20.49;44.62
56518;BME280;42419;48.760;2.322;2023-05-12T03:43:46;100919.94;;;20.51;44.80
56518;BME280;42419;48.760;2.322;2023-05-12T03:46:11;100917.28;;;20.49;44.57
56518;BME280;42419;48.760;2.322;2023-05-12T03:48:37;100926.16;;;20.51;44.64
56518;BME280;42419;48.760;2.322;2023-05-12T03:51:02;100918.91;;;20.53;44.53
56518;BME280;42419;48.760;2.322;2023-05-12T03:53:28;100916.25;;;20.53;44.61
56518;BME280;42419;48.760;2.322;2023-05-12T03:55:53;100910.03;;;20.53;44.60
56518;BME280;42419;48.760;2.322;2023-05-12T03:58:18;100918.00;;;20.54;44.57
56518;BME280;42419;48.760;2.322;2023-05-12T04:00:44;100921.59;;;20.53;44.56
56518;BME280;42419;48.760;2.322;2023-05-12T04:03:09;100919.78;;;20.54;44.80
56518;BME280;42419;48.760;2.322;2023-05-12T04:05:34;100913.53;;;20.55;44.59
56518;BME280;42419;48.760;2.322;2023-05-12T04:08:02;100897.09;;;20.41;44.64
56518;BME280;42419;48.760;2.322;2023-05-12T04:10:27;100912.66;;;20.54;44.66
56518;BME280;42419;48.760;2.322;2023-05-12T04:12:52;100912.66;;;20.54;44.56
56518;BME280;42419;48.760;2.322;2023-05-12T04:15:18;100906.69;;;20.48;44.45
56518;BME280;42419;48.760;2.322;2023-05-12T04:17:43;100910.84;;;20.55;44.59
56518;BME280;42419;48.760;2.322;2023-05-12T04:20:09;100919.78;;;20.54;44.43
56518;BME280;42419;48.760;2.322;2023-05-12T04:22:34;100919.78;;;20.54;44.41
56518;BME280;42419;48.760;2.322;2023-05-12T04:25:00;100917.19;;;20.52;44.32
56518;BME280;42419;48.760;2.322;2023-05-12T04:27:25;100898.97;;;20.39;44.31
56518;BME280;42419;48.760;2.322;2023-05-12T04:29:50;100920.81;;;20.51;44.49
56518;BME280;42419;48.760;2.322;2023-05-12T04:32:16;100914.56;;;20.51;44.45
56518;BME280;42419;48.760;2.322;2023-05-12T04:34:41;100920.81;;;20.51;44.34
56518;BME280;42419;48.760;2.322;2023-05-12T04:37:06;100924.34;;;20.52;44.43
56518;BME280;42419;48.760;2.322;2023-05-12T04:39:32;100913.81;;;20.47;44.52
56518;BME280;42419;48.760;2.322;2023-05-12T04:42:00;100921.69;;;20.52;44.46
56518;BME280;42419;48.760;2.322;2023-05-12T04:44:26;100924.34;;;20.52;44.51
56518;BME280;42419;48.760;2.322;2023-05-12T04:46:51;100934.09;;;20.53;44.46
56518;BME280;42419;48.760;2.322;2023-05-12T04:49:20;100934.91;;;20.55;44.48
56518;BME280;42419;48.760;2.322;2023-05-12T04:51:45;100933.16;;;20.54;44.63
56518;BME280;42419;48.760;2.322;2023-05-12T04:54:11;100933.16;;;20.54;44.49
56518;BME280;42419;48.760;2.322;2023-05-12T04:56:36;100938.38;;;20.57;44.65
56518;BME280;42419;48.760;2.322;2023-05-12T04:59:02;100937.56;;;20.56;44.62
56518;BME280;42419;48.760;2.322;2023-05-12T05:01:27;100934.03;;;20.54;44.63
56518;BME280;42419;48.760;2.322;2023-05-12T05:03:52;100940.28;;;20.55;44.85
56518;BME280;42419;48.760;2.322;2023-05-12T05:06:18;100942.81;;;20.58;44.93
56518;BME280;42419;48.760;2.322;2023-05-12T05:08:43;100954.41;;;20.58;44.79
56518;BME280;42419;48.760;2.322;2023-05-12T05:11:08;100952.59;;;20.59;44.98
56518;BME280;42419;48.760;2.322;2023-05-12T05:13:34;100940.28;;;20.55;44.98
56518;BME280;42419;48.760;2.322;2023-05-12T05:15:59;100962.38;;;20.60;45.00
56518;BME280;42419;48.760;2.322;2023-05-12T05:18:24;100953.44;;;20.61;44.98
56518;BME280;42419;48.760;2.322;2023-05-12T05:20:50;100956.94;;;20.61;44.78
56518;BME280;42419;48.760;2.322;2023-05-12T05:23:15;100942.19;;;20.51;44.88
56518;BME280;42419;48.760;2.322;2023-05-12T05:25:40;100962.25;;;20.63;44.71
56518;BME280;42419;48.760;2.322;2023-05-12T05:28:06;100959.56;;;20.63;44.73
56518;BME280;42419;48.760;2.322;2023-05-12T05:30:32;100956.03;;;20.62;44.53
56518;BME280;42419;48.760;2.322;2023-05-12T05:32:57;100960.50;;;20.62;44.59
56518;BME280;42419;48.760;2.322;2023-05-12T05:35:23;100960.50;;;20.62;44.52
56518;BME280;42419;48.760;2.322;2023-05-12T05:37:48;100923.84;;;20.41;44.26
56518;BME280;42419;48.760;2.322;2023-05-12T05:40:17;100964.91;;;20.63;44.45
56518;BME280;42419;48.760;2.322;2023-05-12T05:42:43;100965.84;;;20.62;44.42
56518;BME280;42419;48.760;2.322;2023-05-12T05:45:09;100967.59;;;20.63;44.32
56518;BME280;42419;48.760;2.322;2023-05-12T05:47:34;100965.84;;;20.62;44.26
56518;BME280;42419;48.760;2.322;2023-05-12T05:50:02;100948.41;;;20.52;44.36
56518;BME280;42419;48.760;2.322;2023-05-12T05:52:27;100965.78;;;20.63;44.26
56518;BME280;42419;48.760;2.322;2023-05-12T05:54:52;100978.25;;;20.64;44.39
56518;BME280;42419;48.760;2.322;2023-05-12T05:57:17;100964.91;;;20.63;44.32
56518;BME280;42419;48.760;2.322;2023-05-12T05:59:43;100927.50;;;20.38;44.10
56518;BME280;42419;48.760;2.322;2023-05-12T06:02:08;100968.53;;;20.62;44.25
56518;BME280;42419;48.760;2.322;2023-05-12T06:04:33;100972.94;;;20.63;44.00
56518;BME280;42419;48.760;2.322;2023-05-12T06:06:59;100985.41;;;20.64;43.88
56518;BME280;42419;48.760;2.322;2023-05-12T06:09:24;100968.66;;;20.59;43.90
56518;BME280;42419;48.760;2.322;2023-05-12T06:11:49;100974.69;;;20.64;43.96
56518;BME280;42419;48.760;2.322;2023-05-12T06:14:15;100974.69;;;20.64;43.84
56518;BME280;42419;48.760;2.322;2023-05-12T06:16:41;100966.66;;;20.64;43.84
56518;BME280;42419;48.760;2.322;2023-05-12T06:19:06;100967.53;;;20.64;43.72
56518;BME280;42419;48.760;2.322;2023-05-12T06:21:32;100921.16;;;20.41;43.71
56518;BME280;42419;48.760;2.322;2023-05-12T06:23:57;100958.88;;;20.58;43.71
56518;BME280;42419;48.760;2.322;2023-05-12T06:26:22;100971.09;;;20.65;43.60
56518;BME280;42419;48.760;2.322;2023-05-12T06:28:48;100976.44;;;20.65;43.66
56518;BME280;42419;48.760;2.322;2023-05-12T06:31:13;100969.31;;;20.66;43.57
56518;BME280;42419;48.760;2.322;2023-05-12T06:33:38;100972.91;;;20.64;43.60
56518;BME280;42419;48.760;2.322;2023-05-12T06:36:04;100977.31;;;20.66;43.50
56518;BME280;42419;48.760;2.322;2023-05-12T06:38:30;100972.03;;;20.64;43.48
56518;BME280;42419;48.760;2.322;2023-05-12T06:40:55;100978.16;;;20.66;43.25
56518;BME280;42419;48.760;2.322;2023-05-12T06:43:21;100976.38;;;20.67;43.48
56518;BME280;42419;48.760;2.322;2023-05-12T06:45:47;100975.56;;;20.64;43.48
56518;BME280;42419;48.760;2.322;2023-05-12T06:48:12;100978.16;;;20.66;43.38
56518;BME280;42419;48.760;2.322;2023-05-12T06:50:38;100982.59;;;20.67;43.29
56518;BME280;42419;48.760;2.322;2023-05-12T06:53:03;100977.25;;;20.67;42.72
56518;BME280;42419;48.760;2.322;2023-05-12T06:55:30;100976.38;;;20.67;43.13
56518;BME280;42419;48.760;2.322;2023-05-12T06:57:55;100985.22;;;20.69;43.17
56518;BME280;42419;48.760;2.322;2023-05-12T07:00:24;100981.69;;;20.68;43.11
56518;BME280;42419;48.760;2.322;2023-05-12T07:02:50;100969.41;;;20.62;43.50
56518;BME280;42419;48.760;2.322;2023-05-12T07:05:16;100976.31;;;20.68;43.12
56518;BME280;42419;48.760;2.322;2023-05-12T07:07:42;100977.16;;;20.70;43.13
56518;BME280;42419;48.760;2.322;2023-05-12T07:10:08;100975.31;;;20.71;43.08
56518;BME280;42419;48.760;2.322;2023-05-12T07:12:33;100977.94;;;20.72;43.08
56518;BME280;42419;48.760;2.322;2023-05-12T07:14:59;100977.25;;;20.67;43.05
56518;BME280;42419;48.760;2.322;2023-05-12T07:17:24;100982.38;;;20.73;43.11
56518;BME280;42419;48.760;2.322;2023-05-12T07:19:50;100977.03;;;20.73;43.15
56518;BME280;42419;48.760;2.322;2023-05-12T07:22:15;100952.66;;;20.57;43.13
56518;BME280;42419;48.760;2.322;2023-05-12T07:24:41;100976.97;;;20.75;43.11
56518;BME280;42419;48.760;2.322;2023-05-12T07:27:06;100952.41;;;20.63;43.12
56518;BME280;42419;48.760;2.322;2023-05-12T07:29:32;100966.38;;;20.72;43.10
56518;BME280;42419;48.760;2.322;2023-05-12T07:31:58;100973.28;;;20.77;42.99
56518;BME280;42419;48.760;2.322;2023-05-12T07:34:23;100975.09;;;20.77;42.90
56518;BME280;42419;48.760;2.322;2023-05-12T07:36:48;100967.06;;;20.77;43.03
56518;BME280;42419;48.760;2.322;2023-05-12T07:39:14;100962.59;;;20.77;43.32
56518;BME280;42419;48.760;2.322;2023-05-12T07:41:43;100963.41;;;20.79;43.40
56518;BME280;42419;48.760;2.322;2023-05-12T07:44:08;100959.75;;;20.82;43.50
56518;BME280;42419;48.760;2.322;2023-05-12T07:46:33;100966.84;;;20.83;43.48
56518;BME280;42419;48.760;2.322;2023-05-12T07:48:59;100964.09;;;20.84;43.47
56518;BME280;42419;48.760;2.322;2023-05-12T07:51:24;100958.69;;;20.86;43.53
56518;BME280;42419;48.760;2.322;2023-05-12T07:53:49;100966.66;;;20.87;43.62
56518;BME280;42419;48.760;2.322;2023-05-12T07:56:15;100963.91;;;20.89;43.65
56518;BME280;42419;48.760;2.322;2023-05-12T07:58:40;100963.84;;;20.90;43.83
56518;BME280;42419;48.760;2.322;2023-05-12T08:01:05;100955.81;;;20.90;43.57
56518;BME280;42419;48.760;2.322;2023-05-12T08:03:34;100927.81;;;20.77;43.67
56518;BME280;42419;48.760;2.322;2023-05-12T08:05:59;100955.69;;;20.93;43.32
56518;BME280;42419;48.760;2.322;2023-05-12T08:08:24;100936.41;;;20.85;43.77
56518;BME280;42419;48.760;2.322;2023-05-12T08:10:50;100929.56;;;20.78;43.48
56518;BME280;42419;48.760;2.322;2023-05-12T08:13:15;100955.59;;;20.96;43.53
56518;BME280;42419;48.760;2.322;2023-05-12T08:15:40;100958.19;;;20.98;43.53
56518;BME280;42419;48.760;2.322;2023-05-12T08:18:05;100950.09;;;20.99;43.83
56518;BME280;42419;48.760;2.322;2023-05-12T08:20:31;100961.69;;;21.00;43.84
56518;BME280;42419;48.760;2.322;2023-05-12T08:22:56;100955.41;;;21.01;43.71
56518;BME280;42419;48.760;2.322;2023-05-12T08:25:22;100963.34;;;21.02;43.64
56518;BME280;42419;48.760;2.322;2023-05-12T08:27:47;100965.13;;;21.03;44.05
56518;BME280;42419;48.760;2.322;2023-05-12T08:30:13;100965.13;;;21.03;43.84
56518;BME280;42419;48.760;2.322;2023-05-12T08:32:38;100966.88;;;21.04;44.03
56518;BME280;42419;48.760;2.322;2023-05-12T08:35:04;100963.25;;;21.05;43.80
56518;BME280;42419;48.760;2.322;2023-05-12T08:37:30;100973.00;;;21.06;44.03
56518;BME280;42419;48.760;2.322;2023-05-12T08:39:56;100946.69;;;20.96;43.66
56518;BME280;42419;48.760;2.322;2023-05-12T08:42:42;100975.59;;;21.09;44.27
56518;BME280;42419;48.760;2.322;2023-05-12T08:45:09;100973.78;;;21.10;44.22
56518;BME280;42419;48.760;2.322;2023-05-12T08:47:36;100974.63;;;21.10;44.25
56518;BME280;42419;48.760;2.322;2023-05-12T08:50:03;100979.06;;;21.12;44.26
56518;BME280;42419;48.760;2.322;2023-05-12T08:52:31;100976.38;;;21.12;44.23
56518;BME280;42419;48.760;2.322;2023-05-12T08:54:57;100973.00;;;21.06;44.20
56518;BME280;42419;48.760;2.322;2023-05-12T08:57:23;100985.28;;;21.12;44.23
56518;BME280;42419;48.760;2.322;2023-05-12T08:59:52;100981.72;;;21.12;43.84
56518;BME280;42419;48.760;2.322;2023-05-12T09:02:20;100987.22;;;21.08;43.55
56518;BME280;42419;48.760;2.322;2023-05-12T09:04:45;100985.41;;;21.09;43.50
56518;BME280;42419;48.760;2.322;2023-05-12T09:07:12;100988.16;;;21.07;43.52
56518;BME280;42419;48.760;2.322;2023-05-12T09:09:41;100984.69;;;21.05;42.30
56518;BME280;42419;48.760;2.322;2023-05-12T09:12:11;100992.00;;;21.00;41.65
56518;BME280;42419;48.760;2.322;2023-05-12T09:14:37;100994.91;;;20.94;41.34
56518;BME280;42419;48.760;2.322;2023-05-12T09:17:05;100995.16;;;20.88;41.16
56518;BME280;42419;48.760;2.322;2023-05-12T09:19:30;101001.56;;;20.84;40.93
56518;BME280;42419;48.760;2.322;2023-05-12T09:21:57;100995.63;;;20.76;41.06
56518;BME280;42419;48.760;2.322;2023-05-12T09:24:42;100996.69;;;20.72;40.60
56518;BME280;42419;48.760;2.322;2023-05-12T09:27:08;100996.91;;;20.66;41.33
56518;BME280;42419;48.760;2.322;2023-05-12T09:29:33;101004.25;;;20.61;41.39
56518;BME280;42419;48.760;2.322;2023-05-12T09:32:00;100996.44;;;20.55;41.68
56518;BME280;42419;48.760;2.322;2023-05-12T09:37:01;101003.00;;;20.46;42.20
56518;BME280;42419;48.760;2.322;2023-05-12T09:39:27;101015.28;;;20.52;42.24
56518;BME280;42419;48.760;2.322;2023-05-12T09:41:53;101002.13;;;20.46;42.43
56518;BME280;42419;48.760;2.322;2023-05-12T09:44:19;101010.81;;;20.52;42.75
56518;BME280;42419;48.760;2.322;2023-05-12T09:46:44;100994.13;;;20.46;43.18
56518;BME280;42419;48.760;2.322;2023-05-12T09:49:11;101002.78;;;20.52;43.08
56518;BME280;42419;48.760;2.322;2023-05-12T09:51:36;101004.44;;;20.56;43.27
56518;BME280;42419;48.760;2.322;2023-05-12T09:54:02;100967.78;;;20.34;43.18
56518;BME280;42419;48.760;2.322;2023-05-12T09:56:29;101010.53;;;20.60;43.40
56518;BME280;42419;48.760;2.322;2023-05-12T09:58:56;101007.78;;;20.61;43.29
56518;BME280;42419;48.760;2.322;2023-05-12T10:01:22;101006.06;;;20.60;43.60
56518;BME280;42419;48.760;2.322;2023-05-12T10:03:51;101006.81;;;20.64;43.57
56518;BME280;42419;48.760;2.322;2023-05-12T10:06:33;100994.78;;;20.52;43.39
56518;BME280;42419;48.760;2.322;2023-05-12T10:11:59;101017.63;;;20.61;43.43
56518;BME280;42419;48.760;2.322;2023-05-12T10:14:25;100996.41;;;20.56;43.32
56518;BME280;42419;48.760;2.322;2023-05-12T10:16:51;100984.16;;;20.49;43.47
56518;BME280;42419;48.760;2.322;2023-05-12T10:19:18;100993.44;;;20.64;43.34
56518;BME280;42419;48.760;2.322;2023-05-12T10:21:45;100964.78;;;20.43;43.31
56518;BME280;42419;48.760;2.322;2023-05-12T10:24:13;100998.78;;;20.64;43.54
56518;BME280;42419;48.760;2.322;2023-05-12T10:26:41;100994.34;;;20.63;43.45
56518;BME280;42419;48.760;2.322;2023-05-12T10:29:07;100988.25;;;20.59;43.36
56518;BME280;42419;48.760;2.322;2023-05-12T10:31:32;100992.69;;;20.60;43.34
56518;BME280;42419;48.760;2.322;2023-05-12T10:34:01;100970.00;;;20.47;43.50
56518;BME280;42419;48.760;2.322;2023-05-12T10:36:26;100995.44;;;20.57;43.33
56518;BME280;42419;48.760;2.322;2023-05-12T10:38:52;100990.16;;;20.56;43.57
56518;BME280;42419;48.760;2.322;2023-05-12T10:41:29;100989.34;;;20.54;43.66
56518;BME280;42419;48.760;2.322;2023-05-12T10:43:55;100961.41;;;20.38;43.46
56518;BME280;42419;48.760;2.322;2023-05-12T10:46:21;100965.88;;;20.37;43.72
56518;BME280;42419;48.760;2.322;2023-05-12T10:51:20;100992.25;;;20.48;43.65
56518;BME280;42419;48.760;2.322;2023-05-12T10:53:50;100956.44;;;20.27;43.30
56518;BME280;42419;48.760;2.322;2023-05-12T10:56:27;100993.59;;;20.35;43.83
56518;BME280;42419;48.760;2.322;2023-05-12T11:02:03;100993.44;;;20.14;44.14
56518;BME280;42419;48.760;2.322;2023-05-12T11:07:12;100994.94;;;19.98;44.38
56518;BME280;42419;48.760;2.322;2023-05-12T11:09:44;100994.28;;;19.90;44.26
56518;BME280;42419;48.760;2.322;2023-05-12T11:12:10;100951.47;;;19.67;44.04
56518;BME280;42419;48.760;2.322;2023-05-12T11:14:38;100941.97;;;19.58;44.32
56518;BME280;42419;48.760;2.322;2023-05-12T11:17:04;100998.63;;;19.94;44.31
56518;BME280;42419;48.760;2.322;2023-05-12T11:19:30;100978.38;;;19.87;44.36
56518;BME280;42419;48.760;2.322;2023-05-12T11:21:56;100965.13;;;19.84;44.36
56518;BME280;42419;48.760;2.322;2023-05-12T11:24:21;100984.31;;;19.95;44.48
56518;BME280;42419;48.760;2.322;2023-05-12T11:26:47;100919.41;;;19.67;44.23
56518;BME280;42419;48.760;2.322;2023-05-12T11:29:19;100990.97;;;20.08;44.37
56518;BME280;42419;48.760;2.322;2023-05-12T11:31:47;100992.69;;;20.11;44.39
56518;BME280;42419;48.760;2.322;2023-05-12T11:34:13;100984.56;;;20.14;44.35
56518;BME280;42419;48.760;2.322;2023-05-12T11:36:40;100985.25;;;20.19;44.17
56518;BME280;42419;48.760;2.322;2023-05-12T11:39:18;100987.81;;;20.22;44.14
56518;BME280;42419;48.760;2.322;2023-05-12T11:41:44;100981.50;;;20.25;44.19
56518;BME280;42419;48.760;2.322;2023-05-12T11:44:14;100972.59;;;20.24;44.25
56518;BME280;42419;48.760;2.322;2023-05-12T11:46:41;100976.91;;;20.28;44.33
56518;BME280;42419;48.760;2.322;2023-05-12T11:49:09;100965.28;;;20.29;44.18
56518;BME280;42419;48.760;2.322;2023-05-12T11:51:42;100966.78;;;20.36;44.01
56518;BME280;42419;48.760;2.322;2023-05-12T11:54:07;100963.19;;;20.37;43.94
56518;BME280;42419;48.760;2.322;2023-05-12T11:56:33;100960.47;;;20.39;43.65
56518;BME280;42419;48.760;2.322;2023-05-12T11:58:59;100964.00;;;20.39;43.86
56518;BME280;42419;48.760;2.322;2023-05-12T12:01:24;100963.06;;;20.40;43.91
56518;BME280;42419;48.760;2.322;2023-05-12T12:03:52;100924.44;;;20.26;43.66
56518;BME280;42419;48.760;2.322;2023-05-12T12:06:19;100919.19;;;20.23;43.74
56518;BME280;42419;48.760;2.322;2023-05-12T12:08:52;100950.63;;;20.39;43.64
56518;BME280;42419;48.760;2.322;2023-05-12T12:11:19;100955.88;;;20.42;43.68
56518;BME280;42419;48.760;2.322;2023-05-12T12:13:51;100928.78;;;20.28;43.67
56518;BME280;42419;48.760;2.322;2023-05-12T12:16:24;100957.59;;;20.45;43.67
56518;BME280;42419;48.760;2.322;2023-05-12T12:18:50;100940.97;;;20.35;43.41
56518;BME280;42419;48.760;2.322;2023-05-12T12:21:16;100946.88;;;20.45;43.43
56518;BME280;42419;48.760;2.322;2023-05-12T12:23:41;100946.88;;;20.45;43.25
56518;BME280;42419;48.760;2.322;2023-05-12T12:26:06;100944.22;;;20.45;43.34
56518;BME280;42419;48.760;2.322;2023-05-12T12:28:32;100939.78;;;20.44;42.85
56518;BME280;42419;48.760;2.322;2023-05-12T12:30:58;100934.75;;;20.35;42.49
56518;BME280;42419;48.760;2.322;2023-05-12T12:33:23;100934.84;;;20.33;42.32
56518;BME280;42419;48.760;2.322;2023-05-12T12:35:49;100946.28;;;20.37;42.49
56518;BME280;42419;48.760;2.322;2023-05-12T12:38:14;100950.69;;;20.38;42.25
56518;BME280;42419;48.760;2.322;2023-05-12T12:40:39;100954.34;;;20.35;42.09
56518;BME280;42419;48.760;2.322;2023-05-12T12:43:05;100928.13;;;20.21;42.41
56518;BME280;42419;48.760;2.322;2023-05-12T12:45:30;100966.09;;;20.31;42.04
56518;BME280;42419;48.760;2.322;2023-05-12T12:47:55;100954.63;;;20.28;42.05
56518;BME280;42419;48.760;2.322;2023-05-12T12:50:21;100964.41;;;20.29;42.02
56518;BME280;42419;48.760;2.322;2023-05-12T12:52:47;100953.19;;;20.19;43.08
56518;BME280;42419;48.760;2.322;2023-05-12T12:55:13;100976.91;;;20.28;43.81
56518;BME280;42419;48.760;2.322;2023-05-12T12:57:38;100967.03;;;20.30;44.20